createdAt,value
2022-10-30T00:02:09.874Z,13.90
2022-10-30T00:05:12.211Z,13.91
2022-10-30T00:08:16.571Z,13.87
2022-10-30T00:11:18.953Z,13.95
2022-10-30T00:14:21.169Z,13.97
2022-10-30T00:17:23.458Z,13.86
2022-10-30T00:20:25.747Z,13.98
2022-10-30T00:23:27.977Z,14.04
2022-10-30T00:26:32.066Z,14.04
2022-10-30T00:29:34.295Z,13.87
2022-10-30T00:32:36.592Z,14.02
2022-10-30T00:35:38.924Z,14.00
2022-10-30T00:38:41.253Z,13.79
2022-10-30T00:41:43.594Z,13.75
2022-10-30T00:44:46.181Z,13.81
2022-10-30T00:47:53.557Z,13.92
2022-10-30T00:50:57.376Z,13.92
2022-10-30T00:54:01.064Z,13.95
2022-10-30T00:57:05.515Z,13.93
2022-10-30T01:00:09.097Z,13.98
2022-10-30T01:03:11.605Z,13.89
2022-10-30T01:06:14.650Z,13.94
2022-10-30T01:09:17.092Z,14.00
2022-10-30T01:12:19.417Z,14.05
2022-10-30T01:15:28.695Z,13.86
2022-10-30T01:18:35.884Z,13.75
2022-10-30T01:22:11.225Z,13.82
2022-10-30T01:25:38.086Z,13.77
2022-10-30T01:28:55.972Z,13.74
2022-10-30T01:32:26.007Z,13.71
2022-10-30T01:35:46.136Z,13.82
2022-10-30T01:38:53.611Z,13.59
2022-10-30T01:41:56.109Z,13.72
2022-10-30T01:44:58.521Z,13.72
2022-10-30T01:48:21.039Z,13.88
2022-10-30T01:51:46.454Z,13.92
2022-10-30T01:55:11.125Z,14.06
2022-10-30T01:58:29.495Z,14.07
2022-10-30T02:01:35.683Z,13.93
2022-10-30T02:04:38.920Z,13.76
2022-10-30T02:07:41.435Z,13.84
2022-10-30T02:10:46.788Z,13.77
2022-10-30T02:13:49.251Z,13.73
2022-10-30T02:16:53.462Z,13.86
2022-10-30T02:19:56.066Z,13.92
2022-10-30T02:22:59.662Z,13.92
2022-10-30T02:26:07.116Z,13.75
2022-10-30T02:29:09.461Z,13.83
2022-10-30T02:32:11.758Z,13.91
2022-10-30T02:35:14.453Z,13.90
2022-10-30T02:38:17.003Z,14.00
2022-10-30T02:41:21.636Z,13.96
2022-10-30T02:44:24.054Z,13.87
2022-10-30T02:47:28.686Z,13.71
2022-10-30T02:50:30.945Z,13.71
2022-10-30T02:53:34.231Z,13.61
2022-10-30T02:56:36.744Z,13.23
2022-10-30T02:59:39.056Z,13.27
2022-10-30T03:02:41.539Z,13.43
2022-10-30T03:05:43.913Z,13.66
2022-10-30T03:08:46.570Z,13.73
2022-10-30T03:11:48.893Z,13.72
2022-10-30T03:14:51.204Z,13.87
2022-10-30T03:17:53.521Z,13.88
2022-10-30T03:20:58.256Z,14.02
2022-10-30T03:24:00.547Z,13.92
2022-10-30T03:27:03.021Z,13.76
2022-10-30T03:30:05.852Z,13.90
2022-10-30T03:33:08.205Z,14.00
2022-10-30T03:36:12.550Z,14.11
2022-10-30T03:39:14.851Z,14.05
2022-10-30T03:42:19.116Z,14.05
2022-10-30T03:45:26.851Z,13.99
2022-10-30T03:48:29.890Z,14.06
2022-10-30T03:51:33.441Z,14.08
2022-10-30T03:54:35.773Z,13.96
2022-10-30T03:57:38.666Z,13.83
2022-10-30T04:00:51.081Z,13.91
2022-10-30T04:03:53.353Z,13.92
2022-10-30T04:06:55.975Z,13.99
2022-10-30T04:09:58.432Z,14.03
2022-10-30T04:13:06.132Z,14.01
2022-10-30T04:16:09.952Z,14.09
2022-10-30T04:19:12.375Z,14.09
2022-10-30T04:22:15.256Z,13.99
2022-10-30T04:25:17.554Z,13.99
2022-10-30T04:28:21.408Z,14.04
2022-10-30T04:31:23.851Z,13.97
2022-10-30T04:34:26.527Z,13.91
2022-10-30T04:37:28.907Z,13.94
2022-10-30T04:40:34.018Z,13.97
2022-10-30T04:43:39.476Z,13.91
2022-10-30T04:46:41.891Z,13.89
2022-10-30T04:49:45.802Z,13.94
2022-10-30T04:52:48.181Z,13.88
2022-10-30T04:55:54.305Z,13.86
2022-10-30T04:58:56.925Z,13.79
2022-10-30T05:01:59.693Z,13.79
2022-10-30T05:05:02.387Z,13.75
2022-10-30T05:08:04.909Z,13.68
2022-10-30T05:11:07.776Z,13.70
2022-10-30T05:14:11.110Z,13.67
2022-10-30T05:17:13.529Z,13.61
2022-10-30T05:20:18.760Z,13.67
2022-10-30T05:23:21.406Z,13.69
2022-10-30T05:26:23.901Z,13.73
2022-10-30T05:29:27.668Z,13.77
2022-10-30T05:32:30.071Z,13.74
2022-10-30T05:35:35.235Z,13.84
2022-10-30T05:38:39.129Z,13.73
2022-10-30T05:41:45.204Z,13.79
2022-10-30T05:45:00.220Z,13.70
2022-10-30T05:48:06.335Z,13.79
2022-10-30T05:51:15.819Z,13.71
2022-10-30T05:54:24.692Z,13.76
2022-10-30T05:58:01.265Z,13.78
2022-10-30T06:01:08.074Z,13.82
2022-10-30T06:04:20.665Z,13.71
2022-10-30T06:07:23.518Z,13.75
2022-10-30T06:10:26.672Z,13.78
2022-10-30T06:13:51.858Z,13.82
2022-10-30T06:16:58.429Z,13.82
2022-10-30T06:20:03.786Z,13.83
2022-10-30T06:23:41.421Z,13.79
2022-10-30T06:26:59.334Z,13.80
2022-10-30T06:30:01.609Z,13.71
2022-10-30T06:33:05.287Z,13.68
2022-10-30T06:36:08.986Z,13.77
2022-10-30T06:39:11.898Z,13.76
2022-10-30T06:42:28.023Z,13.82
2022-10-30T06:45:45.743Z,13.77
2022-10-30T06:48:48.350Z,13.85
2022-10-30T06:51:51.911Z,13.93
2022-10-30T06:54:54.235Z,13.95
2022-10-30T06:58:26.006Z,13.92
2022-10-30T07:01:39.880Z,13.94
2022-10-30T07:04:58.400Z,13.99
2022-10-30T07:08:00.733Z,13.96
2022-10-30T07:11:03.089Z,14.02
2022-10-30T07:14:37.645Z,13.90
2022-10-30T07:17:52.993Z,13.99
2022-10-30T07:20:58.354Z,13.93
2022-10-30T07:24:01.439Z,14.00
2022-10-30T07:27:08.108Z,14.00
2022-10-30T07:30:15.512Z,14.04
2022-10-30T07:33:44.227Z,14.02
2022-10-30T07:37:18.916Z,13.79
2022-10-30T07:40:29.209Z,13.95
2022-10-30T07:43:50.225Z,14.06
2022-10-30T07:47:10.950Z,14.04
2022-10-30T07:50:32.232Z,14.07
2022-10-30T07:53:35.239Z,14.09
2022-10-30T07:56:39.241Z,14.21
2022-10-30T07:59:55.056Z,14.17
2022-10-30T08:03:26.174Z,14.21
2022-10-30T08:06:39.014Z,14.17
2022-10-30T08:09:41.332Z,14.21
2022-10-30T08:12:45.876Z,14.23
2022-10-30T08:15:49.630Z,14.13
2022-10-30T08:18:52.180Z,14.23
2022-10-30T08:21:59.993Z,14.27
2022-10-30T08:25:02.810Z,14.25
2022-10-30T08:28:07.570Z,14.26
2022-10-30T08:31:12.262Z,14.23
2022-10-30T08:34:37.702Z,14.32
2022-10-30T08:37:42.853Z,14.33
2022-10-30T08:40:45.338Z,14.40
2022-10-30T08:43:47.612Z,14.36
2022-10-30T08:46:49.916Z,14.42
2022-10-30T08:49:53.848Z,14.41
2022-10-30T08:53:04.209Z,14.56
2022-10-30T08:56:07.347Z,14.51
2022-10-30T08:59:21.845Z,14.39
2022-10-30T09:02:26.582Z,14.22
2022-10-30T09:06:07.520Z,13.93
2022-10-30T09:09:35.917Z,13.76
2022-10-30T09:12:38.958Z,14.13
2022-10-30T09:15:41.209Z,14.23
2022-10-30T09:18:43.523Z,14.36
2022-10-30T09:21:45.904Z,14.47
2022-10-30T09:24:48.245Z,14.45
2022-10-30T09:28:10.826Z,14.54
2022-10-30T09:31:48.567Z,14.55
2022-10-30T09:34:54.857Z,14.54
2022-10-30T09:38:00.717Z,14.41
2022-10-30T09:41:34.006Z,14.55
2022-10-30T09:49:03.437Z,14.62
2022-10-30T09:52:35.675Z,14.63
2022-10-30T09:55:56.832Z,14.78
2022-10-30T09:59:08.337Z,14.78
2022-10-30T10:02:25.959Z,14.82
2022-10-30T10:05:40.619Z,14.72
2022-10-30T10:09:06.694Z,14.90
2022-10-30T10:12:37.898Z,14.92
2022-10-30T10:15:40.099Z,14.88
2022-10-30T10:18:56.183Z,14.79
2022-10-30T10:22:01.122Z,15.00
2022-10-30T10:25:07.480Z,14.99
2022-10-30T10:28:16.213Z,15.14
2022-10-30T10:31:55.268Z,15.01
2022-10-30T10:35:22.327Z,15.13
2022-10-30T10:38:39.682Z,15.09
2022-10-30T10:41:54.426Z,15.20
2022-10-30T10:45:17.980Z,15.00
2022-10-30T10:48:36.308Z,14.99
2022-10-30T10:51:48.455Z,15.04
2022-10-30T10:54:55.078Z,15.10
2022-10-30T10:58:01.597Z,15.05
2022-10-30T11:01:06.518Z,15.08
2022-10-30T11:04:15.985Z,15.07
2022-10-30T11:07:25.178Z,15.01
2022-10-30T11:10:27.543Z,15.04
2022-10-30T11:13:34.619Z,15.24
2022-10-30T11:17:07.316Z,15.24
2022-10-30T11:20:44.869Z,15.21
2022-10-30T11:23:48.670Z,15.29
2022-10-30T11:26:50.919Z,15.31
2022-10-30T11:30:01.244Z,15.34
2022-10-30T11:33:22.626Z,15.30
2022-10-30T11:36:26.111Z,15.35
2022-10-30T11:39:30.724Z,15.39
2022-10-30T11:42:33.500Z,15.39
2022-10-30T11:45:40.796Z,15.39
2022-10-30T11:48:46.604Z,15.34
2022-10-30T11:51:48.937Z,15.24
2022-10-30T11:55:03.109Z,15.28
2022-10-30T11:58:08.593Z,15.26
2022-10-30T12:01:27.146Z,15.35
2022-10-30T12:04:33.114Z,15.43
2022-10-30T12:07:35.737Z,15.16
2022-10-30T12:10:54.083Z,15.32
2022-10-30T12:13:56.616Z,15.45
2022-10-30T12:16:59.113Z,15.51
2022-10-30T12:20:03.094Z,15.34
2022-10-30T12:23:15.086Z,15.24
2022-10-30T12:26:17.431Z,15.26
2022-10-30T12:29:22.197Z,15.34
2022-10-30T12:32:26.660Z,15.39
2022-10-30T12:35:40.095Z,15.44
2022-10-30T12:38:48.606Z,15.36
2022-10-30T12:41:58.074Z,15.43
2022-10-30T12:45:37.749Z,15.51
2022-10-30T12:48:55.291Z,15.47
2022-10-30T12:52:12.824Z,15.46
2022-10-30T12:55:18.355Z,15.46
2022-10-30T12:59:18.143Z,15.48
2022-10-30T13:02:28.897Z,15.47
2022-10-30T13:09:10.155Z,15.24
2022-10-30T13:12:20.581Z,15.23
2022-10-30T13:15:26.222Z,15.26
2022-10-30T13:18:33.122Z,15.25
2022-10-30T13:22:01.515Z,15.26
2022-10-30T13:25:19.248Z,15.44
2022-10-30T13:28:26.822Z,15.34
2022-10-30T13:31:53.493Z,15.45
2022-10-30T13:34:58.634Z,15.50
2022-10-30T13:38:14.347Z,15.38
2022-10-30T13:41:32.604Z,15.30
2022-10-30T13:44:59.193Z,15.30
2022-10-30T13:48:41.204Z,15.37
2022-10-30T13:51:45.749Z,15.26
2022-10-30T13:55:01.061Z,15.20
2022-10-30T13:58:41.015Z,15.29
2022-10-30T14:02:04.473Z,15.36
2022-10-30T14:05:31.134Z,15.31
2022-10-30T14:08:39.517Z,15.30
2022-10-30T14:11:42.088Z,15.37
2022-10-30T14:14:48.073Z,15.31
2022-10-30T14:18:12.219Z,15.34
2022-10-30T14:21:31.880Z,15.27
2022-10-30T14:24:34.495Z,15.44
2022-10-30T14:27:36.743Z,15.41
2022-10-30T14:30:44.409Z,15.33
2022-10-30T14:33:52.168Z,15.28
2022-10-30T14:36:54.562Z,15.31
2022-10-30T14:39:57.540Z,15.32
2022-10-30T14:43:06.471Z,15.31
2022-10-30T14:46:18.257Z,15.24
2022-10-30T14:49:35.713Z,15.22
2022-10-30T14:53:03.777Z,15.20
2022-10-30T14:59:17.330Z,15.17
2022-10-30T15:02:37.264Z,15.17
2022-10-30T15:05:43.382Z,15.14
2022-10-30T15:08:59.569Z,14.98
2022-10-30T15:12:20.615Z,15.05
2022-10-30T15:15:22.946Z,14.96
2022-10-30T15:18:29.422Z,15.00
2022-10-30T15:21:39.668Z,14.99
2022-10-30T15:24:42.002Z,14.88
2022-10-30T15:27:46.730Z,14.86
2022-10-30T15:31:06.755Z,14.82
2022-10-30T15:34:22.526Z,14.77
2022-10-30T15:37:24.845Z,14.79
2022-10-30T15:40:28.248Z,14.83
2022-10-30T15:43:36.079Z,14.76
2022-10-30T15:46:39.125Z,14.68
2022-10-30T15:49:46.944Z,14.66
2022-10-30T15:52:49.559Z,14.71
2022-10-30T15:55:52.017Z,14.60
2022-10-30T15:59:00.499Z,14.64
2022-10-30T16:02:02.898Z,14.57
2022-10-30T16:05:20.679Z,14.56
2022-10-30T16:08:24.669Z,14.63
2022-10-30T16:11:27.119Z,14.69
2022-10-30T16:14:32.696Z,14.63
2022-10-30T16:17:35.074Z,14.57
2022-10-30T16:20:40.818Z,14.62
2022-10-30T16:23:49.661Z,14.61
2022-10-30T16:27:03.580Z,14.71
2022-10-30T16:30:06.406Z,14.60
2022-10-30T16:33:08.731Z,14.56
2022-10-30T16:36:15.045Z,14.64
2022-10-30T16:39:18.894Z,14.65
2022-10-30T16:42:25.798Z,14.60
2022-10-30T16:45:34.261Z,14.56
2022-10-30T16:48:36.682Z,14.62
2022-10-30T16:51:39.695Z,14.45
2022-10-30T16:54:48.101Z,14.46
2022-10-30T16:57:55.055Z,14.54
2022-10-30T17:01:03.446Z,14.61
2022-10-30T17:04:06.073Z,14.52
2022-10-30T17:07:19.299Z,14.65
2022-10-30T17:10:38.320Z,14.71
2022-10-30T17:13:42.917Z,14.75
2022-10-30T17:16:52.189Z,14.73
2022-10-30T17:20:01.978Z,14.68
2022-10-30T17:23:18.317Z,14.67
2022-10-30T17:26:20.642Z,14.60
2022-10-30T17:29:38.178Z,14.62
2022-10-30T17:32:45.072Z,14.50
2022-10-30T17:35:47.428Z,14.56
2022-10-30T17:38:49.720Z,14.42
2022-10-30T17:41:54.128Z,14.51
2022-10-30T17:44:56.435Z,14.57
2022-10-30T17:47:58.950Z,14.60
2022-10-30T17:51:01.290Z,14.51
2022-10-30T17:54:08.900Z,14.58
2022-10-30T17:57:12.197Z,14.69
2022-10-30T18:00:14.854Z,14.65
2022-10-30T18:03:17.102Z,14.59
2022-10-30T18:06:21.878Z,14.63
2022-10-30T18:09:24.189Z,14.68
2022-10-30T18:12:26.512Z,14.65
2022-10-30T18:15:43.020Z,14.70
2022-10-30T18:18:48.109Z,14.69
2022-10-30T18:21:51.891Z,14.65
2022-10-30T18:24:54.170Z,14.72
2022-10-30T18:27:56.467Z,14.75
2022-10-30T18:30:59.560Z,14.65
2022-10-30T18:34:01.983Z,14.66
2022-10-30T18:37:05.375Z,14.63
2022-10-30T18:40:08.199Z,14.50
2022-10-30T18:43:11.078Z,14.37
2022-10-30T18:46:13.637Z,14.44
2022-10-30T18:49:15.983Z,14.47
2022-10-30T18:52:18.307Z,14.41
2022-10-30T18:55:24.536Z,14.36
2022-10-30T18:58:26.828Z,14.37
2022-10-30T19:01:31.589Z,14.26
2022-10-30T19:04:34.326Z,14.24
2022-10-30T19:07:36.608Z,14.23
2022-10-30T19:10:43.415Z,14.18
2022-10-30T19:13:46.183Z,14.24
2022-10-30T19:16:48.486Z,14.23
2022-10-30T19:19:50.731Z,14.20
2022-10-30T19:22:53.091Z,14.28
2022-10-30T19:25:55.416Z,14.27
2022-10-30T19:28:57.839Z,14.29
2022-10-30T19:32:00.127Z,14.29
2022-10-30T19:35:02.432Z,14.24
2022-10-30T19:38:08.086Z,14.32
2022-10-30T19:41:10.374Z,14.19
2022-10-30T19:44:12.720Z,14.22
2022-10-30T19:47:14.972Z,14.21
2022-10-30T19:50:33.413Z,14.17
2022-10-30T19:53:36.168Z,14.27
2022-10-30T19:56:38.547Z,14.21
2022-10-30T19:59:40.892Z,14.18
2022-10-30T20:02:43.668Z,14.25
2022-10-30T20:05:47.951Z,14.33
2022-10-30T20:08:50.281Z,14.24
2022-10-30T20:11:52.579Z,14.23
2022-10-30T20:14:54.816Z,14.12
2022-10-30T20:17:58.019Z,14.07
2022-10-30T20:21:02.773Z,14.17
2022-10-30T20:24:05.915Z,14.20
2022-10-30T20:27:09.802Z,14.12
2022-10-30T20:30:16.394Z,14.21
2022-10-30T20:33:19.468Z,14.17
2022-10-30T20:36:21.754Z,14.08
2022-10-30T20:39:24.035Z,14.09
2022-10-30T20:42:26.331Z,14.16
2022-10-30T20:45:29.357Z,14.17
2022-10-30T20:48:31.903Z,14.17
2022-10-30T20:51:35.244Z,14.07
2022-10-30T20:54:37.545Z,14.18
2022-10-30T20:57:39.886Z,14.18
2022-10-30T21:00:42.336Z,14.19
2022-10-30T21:03:44.707Z,14.10
2022-10-30T21:06:46.989Z,14.12
2022-10-30T21:09:49.213Z,14.07
2022-10-30T21:12:51.472Z,14.05
2022-10-30T21:15:53.886Z,14.04
2022-10-30T21:18:56.223Z,14.02
2022-10-30T21:21:58.436Z,14.00
2022-10-30T21:25:00.690Z,14.04
2022-10-30T21:28:03.720Z,13.94
2022-10-30T21:31:08.511Z,13.97
2022-10-30T21:34:10.773Z,14.01
2022-10-30T21:37:13.015Z,13.95
2022-10-30T21:40:15.455Z,14.01
2022-10-30T21:43:17.697Z,13.94
2022-10-30T21:46:20.904Z,13.89
2022-10-30T21:49:23.170Z,13.87
2022-10-30T21:52:25.474Z,13.91
2022-10-30T21:55:27.682Z,13.84
2022-10-30T21:58:29.964Z,13.88
2022-10-30T22:01:35.376Z,13.68
2022-10-30T22:04:37.707Z,13.63
2022-10-30T22:07:39.992Z,13.61
2022-10-30T22:10:42.275Z,13.63
2022-10-30T22:13:45.063Z,13.68
2022-10-30T22:16:48.324Z,13.67
2022-10-30T22:19:50.557Z,13.72
2022-10-30T22:22:55.944Z,13.67
2022-10-30T22:26:00.091Z,13.75
2022-10-30T22:29:02.519Z,13.67
2022-10-30T22:32:04.939Z,13.64
2022-10-30T22:35:07.641Z,13.63
2022-10-30T22:38:09.958Z,13.74
2022-10-30T22:41:16.756Z,13.69
2022-10-30T22:44:19.767Z,13.70
2022-10-30T22:47:22.101Z,13.84
2022-10-30T22:50:24.379Z,13.87
2022-10-30T22:53:27.785Z,13.80
2022-10-30T22:56:32.799Z,13.74
2022-10-30T22:59:35.086Z,13.65
2022-10-30T23:02:37.396Z,13.56
2022-10-30T23:05:39.957Z,13.66
2022-10-30T23:08:42.327Z,13.66
2022-10-30T23:11:45.079Z,13.47
2022-10-30T23:14:47.380Z,13.52
2022-10-30T23:17:50.204Z,13.62
2022-10-30T23:20:52.475Z,13.59
2022-10-30T23:23:55.460Z,13.71
2022-10-30T23:26:57.726Z,13.61
2022-10-30T23:30:00.002Z,13.75
2022-10-30T23:33:02.648Z,13.78
2022-10-30T23:36:05.817Z,13.74
2022-10-30T23:39:11.215Z,13.74
2022-10-30T23:42:13.518Z,13.65
2022-10-30T23:45:15.841Z,13.62
2022-10-30T23:48:18.489Z,13.60
2022-10-30T23:51:21.748Z,13.54
2022-10-30T23:54:24.039Z,13.64
2022-10-30T23:57:26.337Z,13.70
